WIIIWIDD

Guest
Details From WIII - Jakarta Sukarno-hatta Intl
To WIDD - Batam Hang Nadim
Flight Number -
Tags Generated
Created
Modified
Stats Distance 460 nm / 852 km
Max Altitude 0 ft / 0 m
Waypoints 3
Social Downloads 0
Likes 0
Share VATSIM

Download

Looking for another format? Having issues loading an existing format? Contact us
Advertisement - Login to hide

Notes

Generated

Route

WIII TI021 WIDD

ID Type Via Altitude Latitude Longitude Leg Dist Tot Dist Heading (true) Name
O WIII APT - 0 ft / 0 m -6.12106˚ 106.63876˚ - 0 nm - -
TI021 FIX - 0 ft / 0 m 0.98500˚ 104.19166˚ 451 nm 451 nm 341° / 341° -
O WIDD APT - 0 ft / 0 m 1.10745˚ 104.10661˚ 8 nm 460 nm 325° / 325° -

Altitude Profile

Advertisement - Login to hide

Weather


0- 5 10 15 20 25 30 35+ Temperature / ° C

Clouds and Precipitation
Forecast for 2017-12-15 12:00 UTC. Updated an hour ago

Ground ~20,000 ft ~40,000 ft Winds

WIII

Details ICAO WIII (CGK)
Name Jakarta Sukarno-Hatta Intl
Region Indonesia
Timezone Asia/Jakarta (UTC+7.0)
Stats Elevation 34 ft / 10 m (AMSL)
Location -6.125743° 106.656405°
Runways 2
Magnetic Variation 0.630° E

METAR

WIII 150830Z 23014KT 8000 SCT020 30/21 Q1007 NOSIG

Decode

TAF

TAF WIII 150500Z 1506/1612 27010KT 9000 SCT020 TEMPO 1510/1513 5000 RA BECMG 1515/1517 21004KT

Decode

Departure Runways

ID Width Length Bearing (true) Bearing (mag) Surface Threshold Offset Overrun Length
07L 197 ft / 60 m 11,823 ft / 3,604 m 68.13° 67.50° Concrete 0 ft / 0 m 200 ft / 61 m
07R 197 ft / 60 m 12,024 ft / 3,665 m 68.12° 67.49° Concrete 0 ft / 0 m 200 ft / 61 m
25L 197 ft / 60 m 12,024 ft / 3,665 m 248.12° 247.49° Concrete 0 ft / 0 m 200 ft / 61 m
25R 197 ft / 60 m 11,823 ft / 3,604 m 248.12° 247.49° Concrete 0 ft / 0 m 200 ft / 61 m

WIDD

Details ICAO WIDD (BTH)
Name Batam Hang Nadim
Region Indonesia
Timezone Asia/Jakarta (UTC+7.0)
Stats Elevation 126 ft / 38 m (AMSL)
Location 1.121028° 104.118754°
Runways 1
Magnetic Variation 0.248° E

METAR

WIDD 150830Z 32005KT 1500 TSRA FEW014CB BKN015 30/24 Q1010

Decode

TAF

TAF WIDD 150500Z 1506/1606 04010KT 9999 SCT014 PROB30 TEMPO 1507/1509 6000 -RA

Decode

Destination Runways

ID Width Length Bearing (true) Bearing (mag) Surface Threshold Offset Overrun Length
04 148 ft / 45 m 13,295 ft / 4,052 m 41.80° 41.55° Asphalt 0 ft / 0 m 200 ft / 61 m
22 148 ft / 45 m 13,295 ft / 4,052 m 221.80° 221.55° Asphalt 0 ft / 0 m 200 ft / 61 m

Approach Navaids

Runway Type Ident Frequency Range Bearing (true) Bearing (mag) Slope Elevation
04 Localiser IBTM 110.10 MHz 18 nm / 33 km 41.79° 41.54° - 69 ft / 21 m (AMSL)
04 Glidescope IBTM 110.10 MHz 10 nm / 19 km 41.80° 41.55° 3.00° 125 ft / 38 m (AMSL)
04 DME IBTM 110.10 MHz 18 nm / 33 km - - - 69 ft / 21 m (AMSL)

Popular Alternatives